createdAt,value
2023-05-25T00:01:11.070Z,45.65
2023-05-25T00:03:40.443Z,45.72
2023-05-25T00:06:07.986Z,45.84
2023-05-25T00:08:35.314Z,45.68
2023-05-25T00:11:02.569Z,45.78
2023-05-25T00:13:29.791Z,45.71
2023-05-25T00:15:57.004Z,45.70
2023-05-25T00:18:25.025Z,45.72
2023-05-25T00:20:58.329Z,45.65
2023-05-25T00:23:25.697Z,45.73
2023-05-25T00:25:52.914Z,45.84
2023-05-25T00:28:20.130Z,45.73
2023-05-25T00:30:47.748Z,45.78
2023-05-25T00:33:15.981Z,45.69
2023-05-25T00:35:44.621Z,45.63
2023-05-25T00:38:12.864Z,45.62
2023-05-25T00:40:41.138Z,45.87
2023-05-25T00:43:09.198Z,45.87
2023-05-25T00:45:36.500Z,45.71
2023-05-25T00:48:05.477Z,45.81
2023-05-25T00:50:41.877Z,45.61
2023-05-25T00:53:10.667Z,45.67
2023-05-25T00:55:56.278Z,45.71
2023-05-25T00:58:27.153Z,45.78
2023-05-25T01:00:56.261Z,45.79
2023-05-25T01:03:28.384Z,45.63
2023-05-25T01:05:56.206Z,45.82
2023-05-25T01:08:25.116Z,46.06
2023-05-25T01:10:54.111Z,45.68
2023-05-25T01:13:21.503Z,45.81
2023-05-25T01:15:49.286Z,45.62
2023-05-25T01:18:17.882Z,45.81
2023-05-25T01:20:53.606Z,45.79
2023-05-25T01:23:25.845Z,45.72
2023-05-25T01:25:56.314Z,45.97
2023-05-25T01:28:28.279Z,45.51
2023-05-25T01:30:56.964Z,45.83
2023-05-25T01:33:24.929Z,45.89
2023-05-25T01:35:52.646Z,45.79
2023-05-25T01:38:20.064Z,45.91
2023-05-25T01:40:47.286Z,45.80
2023-05-25T01:43:14.592Z,45.76
2023-05-25T01:45:42.149Z,45.79
2023-05-25T01:48:31.029Z,45.93
2023-05-25T01:51:05.313Z,45.78
2023-05-25T01:53:37.410Z,45.90
2023-05-25T01:56:08.830Z,45.72
2023-05-25T01:58:40.060Z,45.90
2023-05-25T02:01:09.597Z,45.90
2023-05-25T02:03:38.270Z,45.74
2023-05-25T02:06:05.547Z,46.01
2023-05-25T02:08:32.796Z,45.96
2023-05-25T02:11:00.925Z,45.73
2023-05-25T02:13:28.253Z,45.64
2023-05-25T02:15:55.642Z,45.89
2023-05-25T02:18:23.660Z,45.90
2023-05-25T02:20:51.569Z,45.85
2023-05-25T02:23:21.665Z,45.75
2023-05-25T02:25:49.482Z,45.78
2023-05-25T02:28:17.203Z,45.94
2023-05-25T02:30:44.409Z,45.93
2023-05-25T02:33:11.692Z,45.83
2023-05-25T02:35:39.575Z,45.79
2023-05-25T02:38:08.256Z,45.88
2023-05-25T02:40:35.511Z,45.81
2023-05-25T02:43:02.715Z,45.90
2023-05-25T02:45:29.925Z,46.03
2023-05-25T02:47:57.316Z,45.91
2023-05-25T02:50:24.787Z,45.91
2023-05-25T02:52:52.123Z,45.92
2023-05-25T02:55:19.403Z,45.96
2023-05-25T02:57:46.726Z,46.31
2023-05-25T03:00:14.560Z,47.27
2023-05-25T03:02:41.807Z,47.15
2023-05-25T03:05:09.395Z,47.11
2023-05-25T03:07:36.660Z,46.76
2023-05-25T03:10:04.233Z,46.67
2023-05-25T03:12:31.638Z,46.79
2023-05-25T03:14:58.857Z,46.58
2023-05-25T03:17:26.304Z,46.51
2023-05-25T03:19:53.605Z,46.67
2023-05-25T03:22:21.159Z,46.60
2023-05-25T03:24:49.469Z,46.53
2023-05-25T03:27:16.758Z,46.63
2023-05-25T03:29:43.992Z,46.49
2023-05-25T03:32:11.277Z,46.30
2023-05-25T03:34:38.563Z,46.44
2023-05-25T03:37:05.939Z,46.23
2023-05-25T03:39:33.227Z,46.43
2023-05-25T03:42:00.967Z,46.22
2023-05-25T03:44:28.169Z,46.20
2023-05-25T03:46:55.372Z,46.16
2023-05-25T03:49:22.569Z,46.27
2023-05-25T03:51:49.802Z,46.41
2023-05-25T03:54:17.066Z,46.23
2023-05-25T03:56:44.289Z,46.15
2023-05-25T03:59:11.877Z,46.14
2023-05-25T04:01:40.004Z,46.29
2023-05-25T04:04:08.282Z,46.20
2023-05-25T04:06:37.423Z,46.27
2023-05-25T04:09:04.836Z,46.09
2023-05-25T04:11:32.088Z,46.00
2023-05-25T04:13:59.952Z,46.36
2023-05-25T04:16:27.239Z,46.24
2023-05-25T04:18:54.531Z,46.06
2023-05-25T04:21:21.892Z,45.98
2023-05-25T04:23:49.251Z,46.17
2023-05-25T04:26:16.556Z,46.14
2023-05-25T04:28:44.031Z,46.15
2023-05-25T04:31:12.782Z,46.31
2023-05-25T04:33:40.682Z,46.29
2023-05-25T04:36:08.894Z,45.93
2023-05-25T04:38:36.120Z,46.07
2023-05-25T04:41:03.794Z,46.14
2023-05-25T04:43:31.006Z,46.04
2023-05-25T04:45:59.890Z,45.95
2023-05-25T04:48:28.558Z,45.92
2023-05-25T04:50:56.015Z,46.10
2023-05-25T04:53:23.642Z,45.87
2023-05-25T04:55:51.611Z,45.88
2023-05-25T04:58:19.255Z,45.71
2023-05-25T05:00:47.190Z,45.86
2023-05-25T05:03:14.705Z,45.79
2023-05-25T05:05:43.817Z,46.26
2023-05-25T05:08:11.297Z,46.40
2023-05-25T05:10:38.640Z,46.44
2023-05-25T05:13:05.905Z,46.49
2023-05-25T05:15:33.182Z,47.57
2023-05-25T05:18:00.530Z,47.66
2023-05-25T05:20:28.268Z,47.96
2023-05-25T05:22:55.555Z,47.50
2023-05-25T05:25:22.776Z,47.80
2023-05-25T05:27:50.238Z,47.67
2023-05-25T05:30:17.545Z,47.75
2023-05-25T05:32:46.612Z,47.50
2023-05-25T05:35:14.112Z,47.40
2023-05-25T05:37:41.350Z,47.37
2023-05-25T05:40:10.798Z,47.12
2023-05-25T05:42:38.087Z,46.84
2023-05-25T05:45:05.953Z,46.95
2023-05-25T05:47:33.265Z,47.14
2023-05-25T05:50:00.584Z,46.92
2023-05-25T05:52:27.951Z,47.24
2023-05-25T05:54:55.234Z,46.83
2023-05-25T05:57:22.428Z,46.79
2023-05-25T05:59:49.734Z,47.01
2023-05-25T06:02:17.278Z,47.17
2023-05-25T06:04:44.707Z,46.71
2023-05-25T06:07:12.000Z,46.69
2023-05-25T06:09:39.287Z,46.93
2023-05-25T06:12:07.534Z,47.05
2023-05-25T06:14:34.799Z,46.90
2023-05-25T06:17:02.402Z,46.26
2023-05-25T06:19:29.862Z,46.61
2023-05-25T06:21:57.289Z,46.53
2023-05-25T06:24:24.578Z,46.62
2023-05-25T06:26:51.845Z,46.63
2023-05-25T06:29:19.104Z,46.57
2023-05-25T06:31:46.589Z,46.98
2023-05-25T06:34:13.991Z,46.93
2023-05-25T06:36:41.930Z,46.43
2023-05-25T06:39:09.268Z,46.69
2023-05-25T06:41:38.324Z,46.81
2023-05-25T06:44:05.612Z,46.47
2023-05-25T06:46:33.326Z,46.60
2023-05-25T06:49:01.339Z,47.12
2023-05-25T06:51:29.224Z,46.41
2023-05-25T06:53:57.057Z,46.60
2023-05-25T06:56:24.435Z,46.66
2023-05-25T06:58:51.872Z,46.90
2023-05-25T07:01:19.235Z,46.79
2023-05-25T07:03:46.633Z,47.06
2023-05-25T07:06:15.125Z,46.99
2023-05-25T07:08:42.366Z,46.77
2023-05-25T07:11:14.163Z,46.78
2023-05-25T07:13:41.437Z,46.69
2023-05-25T07:16:08.733Z,46.92
2023-05-25T07:18:38.448Z,46.68
2023-05-25T07:21:05.965Z,46.72
2023-05-25T07:23:33.495Z,46.80
2023-05-25T07:26:01.086Z,46.62
2023-05-25T07:28:32.470Z,46.78
2023-05-25T07:30:59.763Z,46.76
2023-05-25T07:33:27.005Z,46.59
2023-05-25T07:35:54.344Z,46.83
2023-05-25T07:38:21.665Z,46.51
2023-05-25T07:40:49.935Z,46.48
2023-05-25T07:43:17.178Z,46.56
2023-05-25T07:45:44.814Z,46.56
2023-05-25T07:48:12.361Z,46.34
2023-05-25T07:50:39.616Z,46.23
2023-05-25T07:53:06.887Z,46.48
2023-05-25T07:55:34.121Z,46.59
2023-05-25T07:58:01.442Z,46.21
2023-05-25T08:00:28.846Z,46.12
2023-05-25T08:02:56.884Z,46.09
2023-05-25T08:05:24.595Z,46.17
2023-05-25T08:07:51.857Z,46.24
2023-05-25T08:10:19.136Z,46.02
2023-05-25T08:12:49.747Z,46.04
2023-05-25T08:15:18.076Z,46.11
2023-05-25T08:17:45.691Z,46.26
2023-05-25T08:20:14.056Z,46.07
2023-05-25T08:22:41.354Z,46.88
2023-05-25T08:25:09.151Z,46.86
2023-05-25T08:27:36.930Z,46.59
2023-05-25T08:30:08.267Z,46.34
2023-05-25T08:32:35.727Z,46.62
2023-05-25T08:35:03.567Z,46.48
2023-05-25T08:37:32.654Z,46.34
2023-05-25T08:40:02.206Z,46.42
2023-05-25T08:42:30.137Z,46.16
2023-05-25T08:44:58.781Z,46.32
2023-05-25T08:47:29.660Z,46.29
2023-05-25T08:49:57.260Z,46.75
2023-05-25T08:52:26.502Z,46.74
2023-05-25T08:54:56.101Z,47.55
2023-05-25T08:57:38.911Z,47.49
2023-05-25T09:00:10.981Z,48.29
2023-05-25T09:02:45.686Z,49.40
2023-05-25T09:05:14.184Z,48.84
2023-05-25T09:07:43.146Z,49.13
2023-05-25T09:10:13.154Z,49.22
2023-05-25T09:12:41.972Z,48.86
2023-05-25T09:15:11.674Z,49.78
2023-05-25T09:17:39.645Z,49.62
2023-05-25T09:20:09.284Z,49.31
2023-05-25T09:22:36.793Z,49.07
2023-05-25T09:25:08.522Z,49.16
2023-05-25T09:27:37.584Z,49.47
2023-05-25T09:30:05.899Z,48.39
2023-05-25T09:32:33.501Z,48.86
2023-05-25T09:35:11.414Z,49.19
2023-05-25T09:37:39.128Z,49.17
2023-05-25T09:40:07.308Z,49.00
2023-05-25T09:42:34.860Z,48.80
2023-05-25T09:45:02.912Z,48.62
2023-05-25T09:47:30.212Z,48.76
2023-05-25T09:49:57.935Z,48.77
2023-05-25T09:52:25.798Z,48.84
2023-05-25T09:54:53.585Z,49.12
2023-05-25T09:57:21.281Z,49.87
2023-05-25T09:59:48.590Z,49.03
2023-05-25T10:02:16.100Z,48.93
2023-05-25T10:04:43.712Z,48.75
2023-05-25T10:07:11.318Z,48.87
2023-05-25T10:09:42.374Z,49.67
2023-05-25T10:12:10.085Z,50.16
2023-05-25T10:14:38.595Z,49.00
2023-05-25T10:17:08.044Z,49.21
2023-05-25T10:19:46.946Z,48.97
2023-05-25T10:22:14.379Z,48.69
2023-05-25T10:25:00.103Z,48.88
2023-05-25T10:27:33.149Z,49.14
2023-05-25T10:30:00.734Z,48.75
2023-05-25T10:32:29.147Z,48.64
2023-05-25T10:34:58.034Z,48.64
2023-05-25T10:37:28.443Z,48.64
2023-05-25T10:39:58.187Z,48.64
2023-05-25T10:42:27.802Z,48.93
2023-05-25T10:44:56.590Z,49.15
2023-05-25T10:47:24.108Z,49.15
2023-05-25T10:50:02.996Z,48.36
2023-05-25T10:52:31.428Z,48.05
2023-05-25T10:55:01.858Z,47.88
2023-05-25T10:57:29.363Z,47.62
2023-05-25T11:00:06.429Z,47.55
2023-05-25T11:02:53.591Z,47.06
2023-05-25T11:05:39.637Z,47.22
2023-05-25T11:08:09.155Z,46.64
2023-05-25T11:10:48.054Z,46.79
2023-05-25T11:13:34.096Z,47.00
2023-05-25T11:16:27.040Z,47.25
2023-05-25T11:18:58.945Z,46.95
2023-05-25T11:21:32.168Z,46.90
2023-05-25T11:24:13.276Z,46.46
2023-05-25T11:26:57.172Z,46.12
2023-05-25T11:29:26.892Z,45.99
2023-05-25T11:31:55.468Z,45.92
2023-05-25T11:34:28.011Z,45.86
2023-05-25T11:36:57.824Z,45.89
2023-05-25T11:39:25.111Z,45.45
2023-05-25T11:41:57.016Z,45.67
2023-05-25T11:44:29.300Z,45.82
2023-05-25T11:46:58.232Z,45.68
2023-05-25T11:49:26.020Z,45.66
2023-05-25T11:51:54.474Z,45.73
2023-05-25T11:54:23.919Z,45.57
2023-05-25T11:56:51.300Z,45.00
2023-05-25T11:59:18.565Z,45.33
2023-05-25T12:01:59.453Z,45.28
2023-05-25T12:04:27.006Z,45.59
2023-05-25T12:07:02.836Z,45.49
2023-05-25T12:09:30.133Z,45.35
2023-05-25T12:11:57.583Z,46.07
2023-05-25T12:14:25.382Z,45.96
2023-05-25T12:16:53.316Z,46.29
2023-05-25T12:19:21.200Z,46.59
2023-05-25T12:21:51.208Z,46.44
2023-05-25T12:24:19.031Z,47.08
2023-05-25T12:26:58.907Z,47.14
2023-05-25T12:29:26.286Z,46.78
2023-05-25T12:31:53.585Z,46.76
2023-05-25T12:34:28.776Z,46.70
2023-05-25T12:36:57.146Z,46.83
2023-05-25T12:39:30.359Z,46.72
2023-05-25T12:41:59.430Z,46.74
2023-05-25T12:44:34.008Z,46.63
2023-05-25T12:47:20.318Z,46.24
2023-05-25T12:49:52.866Z,46.88
2023-05-25T12:52:37.096Z,46.50
2023-05-25T12:55:33.042Z,46.65
2023-05-25T12:58:07.843Z,46.51
2023-05-25T13:00:37.730Z,46.16
2023-05-25T13:03:08.792Z,46.33
2023-05-25T13:05:37.649Z,46.09
2023-05-25T13:08:05.567Z,46.46
2023-05-25T13:10:33.442Z,46.39
2023-05-25T13:13:01.124Z,46.29
2023-05-25T13:15:29.140Z,45.86
2023-05-25T13:17:58.375Z,45.95
2023-05-25T13:20:27.377Z,45.81
2023-05-25T13:22:57.897Z,45.63
2023-05-25T13:25:27.626Z,45.77
2023-05-25T13:27:56.983Z,45.75
2023-05-25T13:30:24.220Z,45.93
2023-05-25T13:32:52.915Z,45.74
2023-05-25T13:35:37.526Z,46.61
2023-05-25T13:38:05.683Z,47.10
2023-05-25T13:40:32.889Z,47.23
2023-05-25T13:43:00.157Z,46.86
2023-05-25T13:45:27.711Z,46.97
2023-05-25T13:47:55.136Z,46.94
2023-05-25T13:50:22.802Z,46.54
2023-05-25T13:52:50.627Z,47.16
2023-05-25T13:55:18.064Z,47.24
2023-05-25T13:57:45.405Z,47.17
2023-05-25T14:00:14.322Z,46.99
2023-05-25T14:02:41.656Z,46.89
2023-05-25T14:05:09.604Z,47.03
2023-05-25T14:07:37.541Z,46.65
2023-05-25T14:10:05.962Z,46.82
2023-05-25T14:12:33.334Z,46.62
2023-05-25T14:15:02.435Z,46.64
2023-05-25T14:17:35.762Z,46.95
2023-05-25T14:20:06.480Z,46.90
2023-05-25T14:22:33.801Z,46.52
2023-05-25T14:25:01.118Z,46.80
2023-05-25T14:27:28.382Z,46.27
2023-05-25T14:29:55.585Z,45.74
2023-05-25T14:32:23.119Z,45.84
2023-05-25T14:34:50.350Z,45.75
2023-05-25T14:37:17.883Z,45.90
2023-05-25T14:39:45.529Z,45.31
2023-05-25T14:42:12.780Z,45.27
2023-05-25T14:44:39.970Z,45.00
2023-05-25T14:47:08.456Z,44.90
2023-05-25T14:49:35.906Z,44.99
2023-05-25T14:52:03.336Z,44.88
2023-05-25T14:54:30.624Z,44.16
2023-05-25T14:56:57.837Z,44.13
2023-05-25T14:59:25.264Z,44.08
2023-05-25T15:01:53.230Z,44.54
2023-05-25T15:04:20.764Z,44.95
2023-05-25T15:06:48.361Z,45.23
2023-05-25T15:09:16.852Z,45.32
2023-05-25T15:11:44.270Z,45.55
2023-05-25T15:14:11.530Z,45.37
2023-05-25T15:16:39.622Z,45.76
2023-05-25T15:19:10.628Z,45.92
2023-05-25T15:21:39.257Z,45.67
2023-05-25T15:24:06.736Z,45.47
2023-05-25T15:26:34.163Z,45.73
2023-05-25T15:29:01.416Z,45.74
2023-05-25T15:31:28.747Z,45.09
2023-05-25T15:33:58.945Z,45.09
2023-05-25T15:36:26.504Z,45.07
2023-05-25T15:38:53.903Z,45.33
2023-05-25T15:41:21.899Z,45.10
2023-05-25T15:43:52.773Z,45.23
2023-05-25T15:46:20.224Z,45.13
2023-05-25T15:48:47.521Z,45.11
2023-05-25T15:51:14.971Z,45.64
2023-05-25T15:53:42.204Z,45.55
2023-05-25T15:56:09.594Z,45.55
2023-05-25T15:58:37.395Z,45.67
2023-05-25T16:01:04.913Z,46.07
2023-05-25T16:03:32.754Z,45.97
2023-05-25T16:06:00.515Z,45.75
2023-05-25T16:08:34.042Z,45.84
2023-05-25T16:11:01.305Z,46.06
2023-05-25T16:13:28.996Z,46.36
2023-05-25T16:15:56.240Z,46.12
2023-05-25T16:18:23.523Z,46.14
2023-05-25T16:20:55.921Z,45.87
2023-05-25T16:23:23.851Z,46.17
2023-05-25T16:25:51.483Z,46.31
2023-05-25T16:28:18.771Z,45.88
2023-05-25T16:30:46.051Z,46.22
2023-05-25T16:33:13.331Z,45.85
2023-05-25T16:35:40.609Z,45.90
2023-05-25T16:38:07.836Z,46.23
2023-05-25T16:40:35.070Z,46.15
2023-05-25T16:43:02.280Z,46.21
2023-05-25T16:45:29.813Z,46.29
2023-05-25T16:47:57.121Z,45.86
2023-05-25T16:50:24.509Z,45.74
2023-05-25T16:52:51.856Z,45.98
2023-05-25T16:55:19.217Z,46.93
2023-05-25T16:57:46.495Z,47.02
2023-05-25T17:00:14.266Z,47.25
2023-05-25T17:02:41.595Z,47.23
2023-05-25T17:05:09.302Z,47.11
2023-05-25T17:07:37.701Z,47.02
2023-05-25T17:10:15.608Z,47.14
2023-05-25T17:12:43.285Z,47.00
2023-05-25T17:15:13.561Z,46.71
2023-05-25T17:17:41.288Z,46.94
2023-05-25T17:20:09.012Z,46.69
2023-05-25T17:22:37.212Z,46.52
2023-05-25T17:25:06.036Z,46.58
2023-05-25T17:27:33.513Z,46.41
2023-05-25T17:30:00.834Z,46.56
2023-05-25T17:32:28.086Z,46.52
2023-05-25T17:34:55.382Z,46.45
2023-05-25T17:37:22.762Z,46.43
2023-05-25T17:39:50.002Z,46.22
2023-05-25T17:42:17.367Z,46.18
2023-05-25T17:44:44.844Z,46.52
2023-05-25T17:47:12.109Z,46.32
2023-05-25T17:49:39.345Z,46.17
2023-05-25T17:52:07.589Z,45.55
2023-05-25T17:54:35.814Z,46.31
2023-05-25T17:57:03.578Z,45.90
2023-05-25T17:59:31.183Z,45.40
2023-05-25T18:01:58.461Z,45.40
2023-05-25T18:04:26.854Z,45.00
2023-05-25T18:06:54.475Z,44.58
2023-05-25T18:09:22.144Z,44.78
2023-05-25T18:11:49.699Z,44.71
2023-05-25T18:14:17.002Z,44.40
2023-05-25T18:16:45.046Z,44.53
2023-05-25T18:19:15.223Z,45.11
2023-05-25T18:21:42.859Z,45.40
2023-05-25T18:24:10.578Z,45.90
2023-05-25T18:26:38.145Z,45.07
2023-05-25T18:29:05.624Z,44.95
2023-05-25T18:31:33.489Z,44.66
2023-05-25T18:34:00.993Z,44.88
2023-05-25T18:36:28.253Z,44.82
2023-05-25T18:38:55.692Z,44.61
2023-05-25T18:41:24.361Z,44.69
2023-05-25T18:43:51.902Z,44.72
2023-05-25T18:46:19.702Z,45.17
2023-05-25T18:48:47.057Z,45.01
2023-05-25T18:51:15.745Z,44.88
2023-05-25T18:53:43.326Z,45.12
2023-05-25T18:56:11.023Z,45.03
2023-05-25T18:58:38.315Z,45.33
2023-05-25T19:01:05.532Z,45.22
2023-05-25T19:03:34.055Z,45.12
2023-05-25T19:06:03.262Z,44.93
2023-05-25T19:08:30.661Z,44.99
2023-05-25T19:10:58.297Z,44.98
2023-05-25T19:13:28.658Z,44.89
2023-05-25T19:15:56.041Z,44.90
2023-05-25T19:18:23.320Z,45.17
2023-05-25T19:20:51.387Z,44.90
2023-05-25T19:23:19.574Z,44.88
2023-05-25T19:25:47.168Z,45.01
2023-05-25T19:28:14.631Z,45.05
2023-05-25T19:30:41.905Z,45.32
2023-05-25T19:33:09.374Z,45.47
2023-05-25T19:35:37.188Z,45.53
2023-05-25T19:38:04.559Z,45.72
2023-05-25T19:40:33.110Z,45.16
2023-05-25T19:43:00.370Z,45.80
2023-05-25T19:45:27.882Z,46.23
2023-05-25T19:47:55.424Z,46.70
2023-05-25T19:50:22.852Z,46.83
2023-05-25T19:52:50.089Z,47.22
2023-05-25T19:55:17.380Z,47.45
2023-05-25T19:57:44.823Z,47.50
2023-05-25T20:00:21.349Z,47.91
2023-05-25T20:02:54.157Z,47.54
2023-05-25T20:05:21.596Z,47.61
2023-05-25T20:07:50.834Z,47.65
2023-05-25T20:10:18.478Z,48.05
2023-05-25T20:12:46.534Z,48.06
2023-05-25T20:15:13.967Z,48.34
2023-05-25T20:17:41.461Z,48.38
2023-05-25T20:20:08.883Z,48.02
2023-05-25T20:22:36.161Z,48.26
2023-05-25T20:25:03.519Z,47.99
2023-05-25T20:27:30.743Z,47.60
2023-05-25T20:29:58.104Z,46.77
2023-05-25T20:32:25.633Z,46.20
2023-05-25T20:34:53.015Z,46.35
2023-05-25T20:37:20.448Z,46.46
2023-05-25T20:39:48.005Z,46.25
2023-05-25T20:42:15.430Z,45.95
2023-05-25T20:44:42.838Z,46.40
2023-05-25T20:47:10.072Z,46.31
2023-05-25T20:49:37.461Z,46.40
2023-05-25T20:52:05.185Z,46.22
2023-05-25T20:54:33.369Z,46.40
2023-05-25T20:57:04.226Z,46.32
2023-05-25T20:59:31.790Z,46.26
2023-05-25T21:01:59.132Z,46.41
2023-05-25T21:04:28.128Z,46.24
2023-05-25T21:06:56.513Z,46.18
2023-05-25T21:09:24.530Z,46.03
2023-05-25T21:11:51.977Z,46.12
2023-05-25T21:14:19.442Z,46.06
2023-05-25T21:16:47.245Z,46.48
2023-05-25T21:19:14.663Z,46.19
2023-05-25T21:21:42.126Z,46.75
2023-05-25T21:24:09.409Z,46.70
2023-05-25T21:26:37.000Z,46.90
2023-05-25T21:29:04.500Z,47.12
2023-05-25T21:31:32.012Z,47.04
2023-05-25T21:34:00.206Z,46.80
2023-05-25T21:36:28.192Z,46.91
2023-05-25T21:38:55.627Z,46.59
2023-05-25T21:41:23.382Z,46.88
2023-05-25T21:43:50.852Z,46.88
2023-05-25T21:46:18.137Z,46.89
2023-05-25T21:48:45.357Z,46.83
2023-05-25T21:51:12.600Z,46.72
2023-05-25T21:53:39.814Z,46.77
2023-05-25T21:56:07.045Z,46.87
2023-05-25T21:58:34.305Z,46.98
2023-05-25T22:01:01.690Z,46.74
2023-05-25T22:03:28.958Z,46.81
2023-05-25T22:05:56.287Z,46.87
2023-05-25T22:08:23.702Z,47.13
2023-05-25T22:10:50.968Z,47.03
2023-05-25T22:13:18.235Z,47.32
2023-05-25T22:15:45.740Z,47.23
2023-05-25T22:18:13.200Z,47.13
2023-05-25T22:20:42.070Z,47.20
2023-05-25T22:23:12.030Z,47.30
2023-05-25T22:25:39.471Z,47.08
2023-05-25T22:28:06.760Z,47.42
2023-05-25T22:30:34.126Z,47.61
2023-05-25T22:33:01.426Z,47.58
2023-05-25T22:35:28.722Z,47.46
2023-05-25T22:37:56.076Z,47.75
2023-05-25T22:40:23.581Z,47.75
2023-05-25T22:42:50.892Z,47.84
2023-05-25T22:45:18.735Z,47.85
2023-05-25T22:47:46.011Z,47.73
2023-05-25T22:50:13.786Z,47.81
2023-05-25T22:52:41.814Z,47.72
2023-05-25T22:55:09.904Z,47.80
2023-05-25T22:57:37.639Z,47.85
2023-05-25T23:00:05.291Z,48.13
2023-05-25T23:02:32.955Z,48.10
2023-05-25T23:05:02.331Z,47.95
2023-05-25T23:07:29.635Z,47.92
2023-05-25T23:09:57.006Z,48.42
2023-05-25T23:12:24.245Z,48.22
2023-05-25T23:14:51.885Z,48.24
2023-05-25T23:17:22.480Z,48.13
2023-05-25T23:19:49.896Z,48.40
2023-05-25T23:22:17.166Z,48.13
2023-05-25T23:24:44.388Z,48.23
2023-05-25T23:27:11.608Z,48.13
2023-05-25T23:29:38.876Z,48.50
2023-05-25T23:32:06.560Z,48.45
2023-05-25T23:34:33.944Z,48.46
2023-05-25T23:37:01.460Z,48.33
2023-05-25T23:39:28.682Z,48.34
2023-05-25T23:41:55.886Z,48.50
2023-05-25T23:44:23.443Z,48.24
2023-05-25T23:46:51.239Z,48.44
2023-05-25T23:49:18.454Z,48.57
2023-05-25T23:51:45.881Z,48.58
2023-05-25T23:54:13.167Z,48.74
2023-05-25T23:56:40.439Z,48.39
2023-05-25T23:59:07.675Z,48.65
